Allisonia, Virginia
Current Conditions -  °F | °C
As of 6:55 PM on Friday 21 Nov 2014 (Local Time) from KPSK Reporting Station
Clear Clear  
Wind Chill:   Ceiling: Unl
Heat Index:   Visibility: 10mi
Dew Point: -14°   Wind: 0mph
Humidity: 32%   Direction: NA
Pressure: 30.44"   Gusts: NA
Location:  36.9752°N, 80.6434°W
Report Text: KPSK 212355Z AUTO 00000KT 10SM CLR 01/M14 A3044 RMK AO2 T00061144 10046 21004
Loading
Personal Weather Stations






























Interactive Weather Map New forecast layout! Learn more

10-Day Weather Forecast

Advertisements
Track Severe Weather on mobile